sensor_id;sensor_type;location;lat;lon;timestamp;pressure;altitude;pressure_sealevel;temperature;humidity
71151;BME280;59071;42.138;24.768;2023-02-23T00:00:00;99632.31;;;8.41;68.83
71151;BME280;59071;42.138;24.768;2023-02-23T00:02:32;99631.13;;;8.29;69.30
71151;BME280;59071;42.138;24.768;2023-02-23T00:04:57;99629.81;;;8.40;69.03
71151;BME280;59071;42.138;24.768;2023-02-23T00:07:23;99633.00;;;8.35;69.35
71151;BME280;59071;42.138;24.768;2023-02-23T00:09:48;99633.63;;;8.37;69.30
71151;BME280;59071;42.138;24.768;2023-02-23T00:12:14;99640.75;;;8.30;69.46
71151;BME280;59071;42.138;24.768;2023-02-23T00:14:41;99627.91;;;8.55;68.96
71151;BME280;59071;42.138;24.768;2023-02-23T00:17:08;99629.50;;;8.50;68.96
71151;BME280;59071;42.138;24.768;2023-02-23T00:19:38;99626.84;;;8.50;69.08
71151;BME280;59071;42.138;24.768;2023-02-23T00:22:03;99629.00;;;8.68;68.35
71151;BME280;59071;42.138;24.768;2023-02-23T00:24:28;99634.56;;;8.73;67.96
71151;BME280;59071;42.138;24.768;2023-02-23T00:26:54;99633.16;;;8.77;68.16
71151;BME280;59071;42.138;24.768;2023-02-23T00:29:20;99628.81;;;8.69;68.07
71151;BME280;59071;42.138;24.768;2023-02-23T00:31:46;99636.84;;;8.76;67.81
71151;BME280;59071;42.138;24.768;2023-02-23T00:34:13;99628.09;;;8.54;68.66
71151;BME280;59071;42.138;24.768;2023-02-23T00:36:39;99625.81;;;8.51;68.90
71151;BME280;59071;42.138;24.768;2023-02-23T00:39:06;99640.41;;;8.61;68.40
71151;BME280;59071;42.138;24.768;2023-02-23T00:41:42;99634.41;;;8.53;68.68
71151;BME280;59071;42.138;24.768;2023-02-23T00:44:07;99636.09;;;8.39;69.57
71151;BME280;59071;42.138;24.768;2023-02-23T00:46:32;99633.59;;;8.52;68.66
71151;BME280;59071;42.138;24.768;2023-02-23T00:48:58;99634.22;;;8.54;68.97
71151;BME280;59071;42.138;24.768;2023-02-23T00:51:24;99630.31;;;8.50;68.86
71151;BME280;59071;42.138;24.768;2023-02-23T00:53:55;99628.78;;;8.41;69.53
71151;BME280;59071;42.138;24.768;2023-02-23T00:56:20;99631.38;;;8.34;69.90
71151;BME280;59071;42.138;24.768;2023-02-23T00:58:46;99633.28;;;8.40;69.67
71151;BME280;59071;42.138;24.768;2023-02-23T01:01:12;99626.84;;;8.28;70.08
71151;BME280;59071;42.138;24.768;2023-02-23T01:03:38;99636.91;;;8.39;70.12
71151;BME280;59071;42.138;24.768;2023-02-23T01:06:04;99631.53;;;8.76;68.87
71151;BME280;59071;42.138;24.768;2023-02-23T01:08:31;99637.19;;;8.45;69.54
71151;BME280;59071;42.138;24.768;2023-02-23T01:10:56;99638.91;;;8.52;69.47
71151;BME280;59071;42.138;24.768;2023-02-23T01:13:22;99640.97;;;8.57;69.28
71151;BME280;59071;42.138;24.768;2023-02-23T01:15:47;99639.22;;;8.43;69.92
71151;BME280;59071;42.138;24.768;2023-02-23T01:18:14;99634.56;;;8.23;70.67
71151;BME280;59071;42.138;24.768;2023-02-23T01:20:39;99639.03;;;8.44;70.26
71151;BME280;59071;42.138;24.768;2023-02-23T01:23:06;99641.94;;;8.49;69.74
71151;BME280;59071;42.138;24.768;2023-02-23T01:25:31;99640.09;;;8.50;69.79
71151;BME280;59071;42.138;24.768;2023-02-23T01:27:56;99639.72;;;8.31;70.25
71151;BME280;59071;42.138;24.768;2023-02-23T01:30:22;99645.84;;;8.32;70.27
71151;BME280;59071;42.138;24.768;2023-02-23T01:32:47;99635.63;;;8.29;70.74
71151;BME280;59071;42.138;24.768;2023-02-23T01:35:13;99645.72;;;8.40;70.41
71151;BME280;59071;42.138;24.768;2023-02-23T01:37:39;99634.59;;;8.30;70.56
71151;BME280;59071;42.138;24.768;2023-02-23T01:40:06;99633.09;;;8.20;70.93
71151;BME280;59071;42.138;24.768;2023-02-23T01:42:41;99640.72;;;8.09;70.96
71151;BME280;59071;42.138;24.768;2023-02-23T01:45:18;99644.25;;;8.37;70.27
71151;BME280;59071;42.138;24.768;2023-02-23T01:47:45;99639.34;;;8.13;70.76
71151;BME280;59071;42.138;24.768;2023-02-23T01:50:12;99643.69;;;8.20;70.50
71151;BME280;59071;42.138;24.768;2023-02-23T01:52:41;99647.50;;;8.11;70.95
71151;BME280;59071;42.138;24.768;2023-02-23T01:55:07;99649.84;;;8.21;70.32
71151;BME280;59071;42.138;24.768;2023-02-23T01:57:37;99642.63;;;7.93;71.72
71151;BME280;59071;42.138;24.768;2023-02-23T02:00:04;99641.69;;;8.01;71.05
71151;BME280;59071;42.138;24.768;2023-02-23T02:02:39;99653.94;;;8.02;70.91
71151;BME280;59071;42.138;24.768;2023-02-23T02:05:04;99645.94;;;8.17;71.03
71151;BME280;59071;42.138;24.768;2023-02-23T02:07:37;99648.75;;;8.15;70.52
71151;BME280;59071;42.138;24.768;2023-02-23T02:10:04;99646.34;;;7.99;71.05
71151;BME280;59071;42.138;24.768;2023-02-23T02:12:39;99646.47;;;7.91;71.04
71151;BME280;59071;42.138;24.768;2023-02-23T02:15:06;99650.84;;;7.77;72.09
71151;BME280;59071;42.138;24.768;2023-02-23T02:17:53;99647.94;;;8.15;70.72
71151;BME280;59071;42.138;24.768;2023-02-23T02:33:24;99659.28;;;7.87;71.27
71151;BME280;59071;42.138;24.768;2023-02-23T02:38:52;99654.63;;;7.89;70.65
71151;BME280;59071;42.138;24.768;2023-02-23T02:44:01;99659.88;;;8.04;70.40
71151;BME280;59071;42.138;24.768;2023-02-23T02:46:34;99658.22;;;8.03;70.38
71151;BME280;59071;42.138;24.768;2023-02-23T02:49:03;99656.13;;;7.98;70.16
71151;BME280;59071;42.138;24.768;2023-02-23T02:56:35;99670.88;;;7.86;70.10
71151;BME280;59071;42.138;24.768;2023-02-23T02:59:09;99670.06;;;7.86;70.57
71151;BME280;59071;42.138;24.768;2023-02-23T03:01:54;99670.78;;;7.94;70.54
71151;BME280;59071;42.138;24.768;2023-02-23T03:04:39;99662.50;;;8.26;69.16
71151;BME280;59071;42.138;24.768;2023-02-23T03:07:25;99668.66;;;7.68;71.03
71151;BME280;59071;42.138;24.768;2023-02-23T03:18:54;99683.75;;;7.38;73.27
71151;BME280;59071;42.138;24.768;2023-02-23T03:21:45;99685.72;;;7.29;73.08
71151;BME280;59071;42.138;24.768;2023-02-23T03:24:41;99682.03;;;7.30;72.56
71151;BME280;59071;42.138;24.768;2023-02-23T03:30:28;99696.28;;;7.14;73.59
71151;BME280;59071;42.138;24.768;2023-02-23T03:33:17;99693.16;;;7.40;72.85
71151;BME280;59071;42.138;24.768;2023-02-23T03:36:07;99694.81;;;7.41;72.47
71151;BME280;59071;42.138;24.768;2023-02-23T03:38:58;99691.06;;;7.21;73.21
71151;BME280;59071;42.138;24.768;2023-02-23T03:41:43;99688.16;;;7.01;74.51
71151;BME280;59071;42.138;24.768;2023-02-23T03:44:30;99689.41;;;7.35;72.75
71151;BME280;59071;42.138;24.768;2023-02-23T03:47:14;99696.09;;;7.46;72.13
71151;BME280;59071;42.138;24.768;2023-02-23T03:50:01;99695.72;;;7.19;73.15
71151;BME280;59071;42.138;24.768;2023-02-23T03:52:51;99698.09;;;7.14;73.22
71151;BME280;59071;42.138;24.768;2023-02-23T03:55:39;99693.38;;;7.24;72.84
71151;BME280;59071;42.138;24.768;2023-02-23T03:58:36;99698.94;;;7.14;72.66
71151;BME280;59071;42.138;24.768;2023-02-23T04:01:21;99689.06;;;7.23;73.10
71151;BME280;59071;42.138;24.768;2023-02-23T04:04:07;99696.53;;;6.90;74.34
71151;BME280;59071;42.138;24.768;2023-02-23T04:06:52;99691.97;;;6.98;74.29
71151;BME280;59071;42.138;24.768;2023-02-23T04:09:37;99695.81;;;7.11;72.83
71151;BME280;59071;42.138;24.768;2023-02-23T04:15:14;99697.19;;;6.92;74.64
71151;BME280;59071;42.138;24.768;2023-02-23T04:17:42;99696.81;;;6.80;74.61
71151;BME280;59071;42.138;24.768;2023-02-23T04:20:09;99696.31;;;6.61;75.90
71151;BME280;59071;42.138;24.768;2023-02-23T04:22:36;99690.88;;;6.78;75.30
71151;BME280;59071;42.138;24.768;2023-02-23T04:25:01;99694.34;;;6.93;74.45
71151;BME280;59071;42.138;24.768;2023-02-23T04:27:26;99696.91;;;7.01;73.92
71151;BME280;59071;42.138;24.768;2023-02-23T04:29:52;99695.69;;;6.89;73.99
71151;BME280;59071;42.138;24.768;2023-02-23T04:32:18;99698.13;;;6.76;75.19
71151;BME280;59071;42.138;24.768;2023-02-23T04:34:43;99697.34;;;6.90;74.39
71151;BME280;59071;42.138;24.768;2023-02-23T04:37:09;99704.91;;;6.78;74.64
71151;BME280;59071;42.138;24.768;2023-02-23T04:39:34;99702.94;;;7.10;73.79
71151;BME280;59071;42.138;24.768;2023-02-23T04:42:00;99708.50;;;7.15;72.27
71151;BME280;59071;42.138;24.768;2023-02-23T04:44:25;99699.31;;;6.73;74.06
71151;BME280;59071;42.138;24.768;2023-02-23T04:46:51;99706.91;;;6.76;73.82
71151;BME280;59071;42.138;24.768;2023-02-23T04:49:16;99705.22;;;6.83;73.96
71151;BME280;59071;42.138;24.768;2023-02-23T04:51:41;99709.41;;;6.55;75.11
71151;BME280;59071;42.138;24.768;2023-02-23T04:54:07;99707.38;;;6.80;73.66
71151;BME280;59071;42.138;24.768;2023-02-23T04:56:33;99717.44;;;6.99;73.32
71151;BME280;59071;42.138;24.768;2023-02-23T04:58:58;99715.25;;;7.03;72.64
71151;BME280;59071;42.138;24.768;2023-02-23T05:01:24;99720.53;;;6.88;73.59
71151;BME280;59071;42.138;24.768;2023-02-23T05:03:49;99713.88;;;6.92;72.59
71151;BME280;59071;42.138;24.768;2023-02-23T05:06:15;99714.72;;;6.70;74.24
71151;BME280;59071;42.138;24.768;2023-02-23T05:08:41;99719.44;;;6.97;78.69
71151;BME280;59071;42.138;24.768;2023-02-23T05:11:06;99722.75;;;7.29;78.08
71151;BME280;59071;42.138;24.768;2023-02-23T05:13:31;99728.84;;;7.59;74.54
71151;BME280;59071;42.138;24.768;2023-02-23T05:15:57;99721.59;;;7.83;70.34
71151;BME280;59071;42.138;24.768;2023-02-23T05:18:22;99729.66;;;7.75;70.15
71151;BME280;59071;42.138;24.768;2023-02-23T05:20:49;99734.13;;;8.11;73.54
71151;BME280;59071;42.138;24.768;2023-02-23T05:23:14;99734.91;;;8.63;71.01
71151;BME280;59071;42.138;24.768;2023-02-23T05:25:40;99738.69;;;9.73;67.71
71151;BME280;59071;42.138;24.768;2023-02-23T05:28:05;99748.91;;;10.37;67.73
71151;BME280;59071;42.138;24.768;2023-02-23T05:30:33;99739.94;;;10.65;61.89
71151;BME280;59071;42.138;24.768;2023-02-23T05:32:58;99745.41;;;8.77;64.68
71151;BME280;59071;42.138;24.768;2023-02-23T05:35:23;99758.25;;;8.16;65.69
71151;BME280;59071;42.138;24.768;2023-02-23T05:37:49;99763.34;;;8.97;66.24
71151;BME280;59071;42.138;24.768;2023-02-23T05:40:14;99762.25;;;8.27;65.68
71151;BME280;59071;42.138;24.768;2023-02-23T05:42:40;99764.47;;;7.12;69.40
71151;BME280;59071;42.138;24.768;2023-02-23T05:45:05;99772.19;;;7.14;71.13
71151;BME280;59071;42.138;24.768;2023-02-23T05:47:31;99777.59;;;7.65;70.41
71151;BME280;59071;42.138;24.768;2023-02-23T05:49:59;99780.25;;;8.31;66.65
71151;BME280;59071;42.138;24.768;2023-02-23T05:52:25;99782.81;;;7.43;69.25
71151;BME280;59071;42.138;24.768;2023-02-23T05:54:50;99787.56;;;7.63;69.51
71151;BME280;59071;42.138;24.768;2023-02-23T05:57:15;99789.06;;;8.17;70.30
71151;BME280;59071;42.138;24.768;2023-02-23T05:59:41;99790.72;;;8.54;66.41
71151;BME280;59071;42.138;24.768;2023-02-23T06:02:06;99797.03;;;8.75;65.20
71151;BME280;59071;42.138;24.768;2023-02-23T06:04:32;99797.88;;;8.39;65.21
71151;BME280;59071;42.138;24.768;2023-02-23T06:06:57;99801.72;;;8.36;65.28
71151;BME280;59071;42.138;24.768;2023-02-23T06:09:23;99806.38;;;8.49;65.85
71151;BME280;59071;42.138;24.768;2023-02-23T06:11:48;99803.66;;;8.64;65.23
71151;BME280;59071;42.138;24.768;2023-02-23T06:14:13;99809.00;;;9.42;62.48
71151;BME280;59071;42.138;24.768;2023-02-23T06:16:40;99811.78;;;9.06;63.46
71151;BME280;59071;42.138;24.768;2023-02-23T06:19:05;99806.28;;;9.07;62.98
71151;BME280;59071;42.138;24.768;2023-02-23T06:21:31;99814.47;;;8.63;65.04
71151;BME280;59071;42.138;24.768;2023-02-23T06:23:56;99812.31;;;8.94;63.55
71151;BME280;59071;42.138;24.768;2023-02-23T06:26:24;99808.75;;;9.09;63.37
71151;BME280;59071;42.138;24.768;2023-02-23T06:28:49;99816.88;;;9.29;62.29
71151;BME280;59071;42.138;24.768;2023-02-23T06:31:15;99811.66;;;9.42;61.83
71151;BME280;59071;42.138;24.768;2023-02-23T06:33:40;99809.63;;;9.44;61.71
71151;BME280;59071;42.138;24.768;2023-02-23T06:36:05;99812.84;;;9.68;61.30
71151;BME280;59071;42.138;24.768;2023-02-23T06:38:31;99814.34;;;9.84;60.50
71151;BME280;59071;42.138;24.768;2023-02-23T06:40:56;99818.91;;;10.45;58.57
71151;BME280;59071;42.138;24.768;2023-02-23T06:43:21;99820.94;;;10.36;59.20
71151;BME280;59071;42.138;24.768;2023-02-23T06:45:47;99820.00;;;10.70;57.11
71151;BME280;59071;42.138;24.768;2023-02-23T06:48:12;99822.28;;;11.13;56.29
71151;BME280;59071;42.138;24.768;2023-02-23T06:50:37;99822.06;;;11.15;56.71
71151;BME280;59071;42.138;24.768;2023-02-23T06:53:02;99828.22;;;11.35;55.40
71151;BME280;59071;42.138;24.768;2023-02-23T06:55:29;99822.44;;;11.59;54.52
71151;BME280;59071;42.138;24.768;2023-02-23T06:57:54;99829.16;;;11.81;54.09
71151;BME280;59071;42.138;24.768;2023-02-23T07:00:19;99826.31;;;11.69;53.88
71151;BME280;59071;42.138;24.768;2023-02-23T07:02:45;99831.06;;;11.67;54.30
71151;BME280;59071;42.138;24.768;2023-02-23T07:05:10;99834.91;;;11.85;53.90
71151;BME280;59071;42.138;24.768;2023-02-23T07:07:36;99831.56;;;12.09;52.14
71151;BME280;59071;42.138;24.768;2023-02-23T07:10:01;99823.88;;;11.48;54.25
71151;BME280;59071;42.138;24.768;2023-02-23T07:12:26;99829.75;;;12.03;52.97
71151;BME280;59071;42.138;24.768;2023-02-23T07:14:52;99840.53;;;12.28;52.49
71151;BME280;59071;42.138;24.768;2023-02-23T07:17:17;99832.25;;;12.37;52.19
71151;BME280;59071;42.138;24.768;2023-02-23T07:19:42;99835.84;;;12.56;51.44
71151;BME280;59071;42.138;24.768;2023-02-23T07:22:08;99837.59;;;12.37;52.18
71151;BME280;59071;42.138;24.768;2023-02-23T07:24:33;99837.31;;;12.51;52.14
71151;BME280;59071;42.138;24.768;2023-02-23T07:26:58;99840.47;;;12.42;51.98
71151;BME280;59071;42.138;24.768;2023-02-23T07:29:24;99834.50;;;11.95;52.32
71151;BME280;59071;42.138;24.768;2023-02-23T07:31:49;99832.50;;;11.43;54.88
71151;BME280;59071;42.138;24.768;2023-02-23T07:34:14;99833.88;;;11.79;53.68
71151;BME280;59071;42.138;24.768;2023-02-23T07:36:40;99834.78;;;11.46;55.04
71151;BME280;59071;42.138;24.768;2023-02-23T07:39:05;99834.09;;;11.78;54.21
71151;BME280;59071;42.138;24.768;2023-02-23T07:41:31;99837.22;;;11.54;54.43
71151;BME280;59071;42.138;24.768;2023-02-23T07:43:57;99831.22;;;11.72;54.92
71151;BME280;59071;42.138;24.768;2023-02-23T07:46:23;99836.16;;;11.76;54.09
71151;BME280;59071;42.138;24.768;2023-02-23T07:48:48;99842.69;;;11.93;53.69
71151;BME280;59071;42.138;24.768;2023-02-23T07:51:14;99836.22;;;11.22;55.29
71151;BME280;59071;42.138;24.768;2023-02-23T07:53:40;99829.22;;;11.54;54.94
71151;BME280;59071;42.138;24.768;2023-02-23T07:56:06;99833.31;;;11.57;54.86
71151;BME280;59071;42.138;24.768;2023-02-23T07:58:33;99842.72;;;10.73;57.04
71151;BME280;59071;42.138;24.768;2023-02-23T08:00:59;99830.88;;;10.82;57.85
71151;BME280;59071;42.138;24.768;2023-02-23T08:03:24;99832.53;;;11.23;56.34
71151;BME280;59071;42.138;24.768;2023-02-23T08:05:50;99824.13;;;11.33;56.69
71151;BME280;59071;42.138;24.768;2023-02-23T08:08:15;99827.50;;;11.93;55.15
71151;BME280;59071;42.138;24.768;2023-02-23T08:10:40;99827.59;;;12.25;53.80
71151;BME280;59071;42.138;24.768;2023-02-23T08:13:06;99827.72;;;12.37;53.83
71151;BME280;59071;42.138;24.768;2023-02-23T08:15:31;99829.44;;;12.95;52.63
71151;BME280;59071;42.138;24.768;2023-02-23T08:17:57;99822.59;;;12.42;53.56
71151;BME280;59071;42.138;24.768;2023-02-23T08:20:22;99816.91;;;12.25;53.83
71151;BME280;59071;42.138;24.768;2023-02-23T08:22:52;99825.19;;;12.87;52.97
71151;BME280;59071;42.138;24.768;2023-02-23T08:25:17;99816.03;;;13.52;50.99
71151;BME280;59071;42.138;24.768;2023-02-23T08:27:42;99830.66;;;13.49;51.09
71151;BME280;59071;42.138;24.768;2023-02-23T08:30:08;99830.66;;;13.24;51.71
71151;BME280;59071;42.138;24.768;2023-02-23T08:32:33;99834.19;;;12.93;52.34
71151;BME280;59071;42.138;24.768;2023-02-23T08:34:59;99844.41;;;12.32;54.26
71151;BME280;59071;42.138;24.768;2023-02-23T08:37:26;99829.38;;;12.38;54.38
71151;BME280;59071;42.138;24.768;2023-02-23T08:39:53;99829.66;;;13.19;52.38
71151;BME280;59071;42.138;24.768;2023-02-23T08:42:18;99829.41;;;13.27;51.67
71151;BME280;59071;42.138;24.768;2023-02-23T08:44:43;99822.66;;;13.68;51.10
71151;BME280;59071;42.138;24.768;2023-02-23T08:47:09;99829.97;;;13.36;51.62
71151;BME280;59071;42.138;24.768;2023-02-23T08:49:34;99832.56;;;13.17;52.15
71151;BME280;59071;42.138;24.768;2023-02-23T08:51:59;99831.50;;;13.50;51.24
71151;BME280;59071;42.138;24.768;2023-02-23T08:54:25;99835.22;;;13.17;51.69
71151;BME280;59071;42.138;24.768;2023-02-23T08:56:53;99836.66;;;12.95;52.52
71151;BME280;59071;42.138;24.768;2023-02-23T08:59:19;99833.88;;;13.08;52.25
71151;BME280;59071;42.138;24.768;2023-02-23T09:01:44;99829.78;;;13.05;52.16
71151;BME280;59071;42.138;24.768;2023-02-23T09:04:09;99838.06;;;13.22;51.92
71151;BME280;59071;42.138;24.768;2023-02-23T09:06:35;99835.13;;;13.05;52.79
71151;BME280;59071;42.138;24.768;2023-02-23T09:09:00;99839.44;;;12.75;53.16
71151;BME280;59071;42.138;24.768;2023-02-23T09:11:26;99830.06;;;12.97;52.89
71151;BME280;59071;42.138;24.768;2023-02-23T09:13:52;99835.13;;;13.30;52.31
71151;BME280;59071;42.138;24.768;2023-02-23T09:16:17;99822.25;;;13.46;51.51
71151;BME280;59071;42.138;24.768;2023-02-23T09:18:43;99832.72;;;13.22;52.25
71151;BME280;59071;42.138;24.768;2023-02-23T09:21:12;99831.47;;;13.25;52.94
71151;BME280;59071;42.138;24.768;2023-02-23T09:23:42;99840.81;;;13.16;52.50
71151;BME280;59071;42.138;24.768;2023-02-23T09:26:09;99832.56;;;13.17;52.80
71151;BME280;59071;42.138;24.768;2023-02-23T09:28:34;99832.03;;;13.08;53.17
71151;BME280;59071;42.138;24.768;2023-02-23T09:31:08;99825.91;;;13.01;53.21
71151;BME280;59071;42.138;24.768;2023-02-23T09:33:34;99813.09;;;13.79;51.91
71151;BME280;59071;42.138;24.768;2023-02-23T09:36:02;99829.44;;;13.89;50.40
71151;BME280;59071;42.138;24.768;2023-02-23T09:38:28;99817.38;;;13.80;51.05
71151;BME280;59071;42.138;24.768;2023-02-23T09:40:54;99819.03;;;13.62;51.82
71151;BME280;59071;42.138;24.768;2023-02-23T09:46:47;99813.44;;;14.19;50.02
71151;BME280;59071;42.138;24.768;2023-02-23T09:48:54;99811.44;;;13.78;50.99
71151;BME280;59071;42.138;24.768;2023-02-23T09:51:20;99812.88;;;13.62;51.61
71151;BME280;59071;42.138;24.768;2023-02-23T09:53:54;99808.31;;;13.62;51.65
71151;BME280;59071;42.138;24.768;2023-02-23T09:56:39;99807.16;;;13.77;51.32
71151;BME280;59071;42.138;24.768;2023-02-23T09:59:10;99806.19;;;14.57;49.90
71151;BME280;59071;42.138;24.768;2023-02-23T10:04:09;99804.47;;;13.58;51.70
71151;BME280;59071;42.138;24.768;2023-02-23T10:06:36;99807.88;;;14.02;50.66
71151;BME280;59071;42.138;24.768;2023-02-23T10:14:29;99794.56;;;14.44;49.26
71151;BME280;59071;42.138;24.768;2023-02-23T10:17:58;99769.06;;;14.42;48.75
71151;BME280;59071;42.138;24.768;2023-02-23T10:22:23;99785.50;;;14.88;48.80
71151;BME280;59071;42.138;24.768;2023-02-23T10:24:56;99780.03;;;14.82;48.28
71151;BME280;59071;42.138;24.768;2023-02-23T10:27:25;99778.78;;;15.09;47.53
71151;BME280;59071;42.138;24.768;2023-02-23T10:29:54;99774.00;;;14.87;47.95
71151;BME280;59071;42.138;24.768;2023-02-23T10:32:55;99769.44;;;14.99;47.69
71151;BME280;59071;42.138;24.768;2023-02-23T10:35:12;99768.28;;;14.83;46.67
71151;BME280;59071;42.138;24.768;2023-02-23T10:37:37;99766.88;;;14.51;48.66
71151;BME280;59071;42.138;24.768;2023-02-23T10:40:03;99753.00;;;14.96;48.09
71151;BME280;59071;42.138;24.768;2023-02-23T10:42:30;99753.28;;;15.18;47.49
71151;BME280;59071;42.138;24.768;2023-02-23T10:44:56;99758.50;;;14.89;47.85
71151;BME280;59071;42.138;24.768;2023-02-23T10:47:26;99747.66;;;14.84;48.04
71151;BME280;59071;42.138;24.768;2023-02-23T10:49:53;99741.84;;;15.11;47.81
71151;BME280;59071;42.138;24.768;2023-02-23T10:54:48;99745.22;;;15.06;48.37
71151;BME280;59071;42.138;24.768;2023-02-23T10:57:47;99747.44;;;14.85;48.55
71151;BME280;59071;42.138;24.768;2023-02-23T11:02:40;99739.13;;;14.75;48.83
71151;BME280;59071;42.138;24.768;2023-02-23T11:05:06;99742.19;;;15.02;47.77
71151;BME280;59071;42.138;24.768;2023-02-23T11:07:33;99742.50;;;15.41;46.99
71151;BME280;59071;42.138;24.768;2023-02-23T11:10:19;99729.38;;;15.04;47.88
71151;BME280;59071;42.138;24.768;2023-02-23T11:12:44;99742.28;;;15.43;46.74
71151;BME280;59071;42.138;24.768;2023-02-23T11:15:20;99736.22;;;14.65;48.67
71151;BME280;59071;42.138;24.768;2023-02-23T11:17:59;99743.94;;;14.97;48.14
71151;BME280;59071;42.138;24.768;2023-02-23T11:20:28;99737.53;;;15.33;47.45
71151;BME280;59071;42.138;24.768;2023-02-23T11:22:54;99734.72;;;15.28;47.14
71151;BME280;59071;42.138;24.768;2023-02-23T11:25:26;99730.63;;;15.37;46.99
71151;BME280;59071;42.138;24.768;2023-02-23T11:27:51;99739.28;;;15.16;47.04
71151;BME280;59071;42.138;24.768;2023-02-23T11:30:21;99730.53;;;14.97;47.53
71151;BME280;59071;42.138;24.768;2023-02-23T11:32:52;99730.91;;;15.00;47.92
71151;BME280;59071;42.138;24.768;2023-02-23T11:37:44;99722.16;;;15.05;48.53
71151;BME280;59071;42.138;24.768;2023-02-23T11:40:20;99721.88;;;15.42;47.99
71151;BME280;59071;42.138;24.768;2023-02-23T11:42:53;99705.81;;;14.83;49.41
71151;BME280;59071;42.138;24.768;2023-02-23T11:45:19;99710.47;;;15.23;48.83
71151;BME280;59071;42.138;24.768;2023-02-23T11:47:48;99714.97;;;15.58;48.10
71151;BME280;59071;42.138;24.768;2023-02-23T11:52:46;99715.00;;;15.34;48.32
71151;BME280;59071;42.138;24.768;2023-02-23T11:55:15;99720.00;;;15.54;48.21
71151;BME280;59071;42.138;24.768;2023-02-23T11:57:42;99718.53;;;15.35;49.16
71151;BME280;59071;42.138;24.768;2023-02-23T12:00:12;99735.09;;;15.08;50.21
71151;BME280;59071;42.138;24.768;2023-02-23T12:02:52;99719.59;;;14.44;52.16
71151;BME280;59071;42.138;24.768;2023-02-23T12:05:23;99722.00;;;14.64;51.85
71151;BME280;59071;42.138;24.768;2023-02-23T12:07:53;99726.22;;;14.96;50.10
71151;BME280;59071;42.138;24.768;2023-02-23T12:17:56;99727.72;;;15.15;48.63
71151;BME280;59071;42.138;24.768;2023-02-23T12:20:28;99726.53;;;14.64;50.94
71151;BME280;59071;42.138;24.768;2023-02-23T12:22:56;99722.53;;;14.55;52.42
71151;BME280;59071;42.138;24.768;2023-02-23T12:25:27;99740.41;;;14.61;52.45
71151;BME280;59071;42.138;24.768;2023-02-23T12:30:41;99728.03;;;14.30;54.28
71151;BME280;59071;42.138;24.768;2023-02-23T12:33:12;99744.78;;;14.55;53.95
71151;BME280;59071;42.138;24.768;2023-02-23T12:40:34;99729.53;;;13.95;56.29
71151;BME280;59071;42.138;24.768;2023-02-23T12:50:49;99742.53;;;14.52;55.24
71151;BME280;59071;42.138;24.768;2023-02-23T12:53:21;99761.88;;;14.54;55.52
71151;BME280;59071;42.138;24.768;2023-02-23T13:09:00;99756.19;;;14.20;56.29
71151;BME280;59071;42.138;24.768;2023-02-23T13:14:14;99744.72;;;14.01;57.72
71151;BME280;59071;42.138;24.768;2023-02-23T13:16:43;99755.22;;;13.22;60.48
71151;BME280;59071;42.138;24.768;2023-02-23T13:21:48;99745.75;;;13.82;59.37
71151;BME280;59071;42.138;24.768;2023-02-23T13:27:00;99757.91;;;13.22;60.92
71151;BME280;59071;42.138;24.768;2023-02-23T13:29:32;99747.72;;;13.13;61.34
71151;BME280;59071;42.138;24.768;2023-02-23T13:32:00;99777.16;;;12.81;62.90
71151;BME280;59071;42.138;24.768;2023-02-23T13:34:33;99771.44;;;12.77;62.80
71151;BME280;59071;42.138;24.768;2023-02-23T13:37:00;99760.59;;;12.72;62.88
71151;BME280;59071;42.138;24.768;2023-02-23T13:50:25;99782.16;;;12.39;65.43
71151;BME280;59071;42.138;24.768;2023-02-23T13:52:52;99776.22;;;11.91;67.96
71151;BME280;59071;42.138;24.768;2023-02-23T14:00:28;99770.03;;;12.04;66.74
71151;BME280;59071;42.138;24.768;2023-02-23T14:02:54;99778.31;;;11.83;68.10
71151;BME280;59071;42.138;24.768;2023-02-23T14:05:23;99793.25;;;11.84;68.37
71151;BME280;59071;42.138;24.768;2023-02-23T14:07:59;99778.75;;;11.66;68.20
71151;BME280;59071;42.138;24.768;2023-02-23T14:10:35;99783.56;;;12.03;67.45
71151;BME280;59071;42.138;24.768;2023-02-23T14:13:06;99793.69;;;11.81;68.00
71151;BME280;59071;42.138;24.768;2023-02-23T14:18:26;99785.16;;;11.52;69.32
71151;BME280;59071;42.138;24.768;2023-02-23T14:30:58;99793.72;;;11.61;69.50
71151;BME280;59071;42.138;24.768;2023-02-23T14:36:02;99805.47;;;11.40;70.17
71151;BME280;59071;42.138;24.768;2023-02-23T14:38:50;99799.56;;;11.18;71.09
71151;BME280;59071;42.138;24.768;2023-02-23T14:44:04;99792.97;;;11.27;71.72
71151;BME280;59071;42.138;24.768;2023-02-23T14:46:30;99801.78;;;11.27;71.31
71151;BME280;59071;42.138;24.768;2023-02-23T14:49:04;99792.38;;;11.31;70.98
71151;BME280;59071;42.138;24.768;2023-02-23T14:51:36;99797.91;;;11.37;71.11
71151;BME280;59071;42.138;24.768;2023-02-23T14:54:12;99803.41;;;11.42;70.94
71151;BME280;59071;42.138;24.768;2023-02-23T14:56:46;99814.88;;;11.49;71.30
71151;BME280;59071;42.138;24.768;2023-02-23T14:59:19;99807.94;;;11.14;72.10
71151;BME280;59071;42.138;24.768;2023-02-23T15:01:47;99801.19;;;11.05;72.09
71151;BME280;59071;42.138;24.768;2023-02-23T15:04:15;99805.47;;;11.26;72.06
71151;BME280;59071;42.138;24.768;2023-02-23T15:06:41;99829.47;;;11.06;72.99
71151;BME280;59071;42.138;24.768;2023-02-23T15:09:32;99821.44;;;10.86;73.65
71151;BME280;59071;42.138;24.768;2023-02-23T15:11:56;99819.59;;;11.00;73.58
71151;BME280;59071;42.138;24.768;2023-02-23T15:14:23;99811.22;;;11.10;73.04
71151;BME280;59071;42.138;24.768;2023-02-23T15:16:48;99833.94;;;10.92;73.43
71151;BME280;59071;42.138;24.768;2023-02-23T15:19:15;99817.13;;;10.79;74.46
71151;BME280;59071;42.138;24.768;2023-02-23T15:21:41;99817.75;;;10.74;74.58
71151;BME280;59071;42.138;24.768;2023-02-23T15:24:11;99816.53;;;10.76;74.01